Time;durP1;ratioP1;P1;durP2;ratioP2;P2;SDS_P1;SDS_P2;PMS_P1;PMS_P2;Temp;Humidity;BMP_temperature;BMP_pressure;BME280_temperature;BME280_humidity;BME280_pressure;Samples;Min_cycle;Max_cycle;Signal;HPM_P1;HPM_P2
2022/05/28 00:01:14;;;;;;;5.75;2.08;;;;;;;;;;5091834;28;20503;-70
2022/05/28 00:03:42;;;;;;;5.82;2.30;;;;;;;;;;5091747;28;20495;-69
2022/05/28 00:06:09;;;;;;;5.70;2.58;;;;;;;;;;5090632;28;20503;-70
2022/05/28 00:08:36;;;;;;;4.93;1.92;;;;;;;;;;5092060;28;20442;-70
2022/05/28 00:11:09;;;;;;;9.85;2.03;;;;;;;;;;5091946;28;20079;-69
2022/05/28 00:13:36;;;;;;;4.32;1.58;;;;;;;;;;5092030;28;20090;-69
2022/05/28 00:16:02;;;;;;;5.00;1.77;;;;;;;;;;5091962;28;20424;-69
2022/05/28 00:18:31;;;;;;;6.50;2.03;;;;;;;;;;5091637;28;20553;-69
2022/05/28 00:20:57;;;;;;;3.70;1.92;;;;;;;;;;5090984;28;20078;-69
2022/05/28 00:23:24;;;;;;;6.47;2.08;;;;;;;;;;5085217;28;20044;-70
2022/05/28 00:25:50;;;;;;;6.43;1.83;;;;;;;;;;5071358;28;20541;-69
2022/05/28 00:28:21;;;;;;;5.53;1.70;;;;;;;;;;5076173;28;20071;-69
2022/05/28 00:30:48;;;;;;;5.35;2.75;;;;;;;;;;5091584;28;20052;-69
2022/05/28 00:33:14;;;;;;;6.10;2.13;;;;;;;;;;5091886;28;20051;-69
2022/05/28 00:35:41;;;;;;;6.93;1.80;;;;;;;;;;5091876;28;20084;-69
2022/05/28 00:38:07;;;;;;;3.92;1.45;;;;;;;;;;5091760;28;20136;-69
2022/05/28 00:40:34;;;;;;;3.72;1.80;;;;;;;;;;5091258;28;20121;-70
2022/05/28 00:43:01;;;;;;;3.83;1.92;;;;;;;;;;5091825;28;20098;-69
2022/05/28 00:45:28;;;;;;;;;;;;;;;;;;5092250;28;20051;-69
2022/05/28 00:47:56;;;;;;;4.55;1.88;;;;;;;;;;5082008;28;19942;-69
2022/05/28 00:50:23;;;;;;;5.60;1.85;;;;;;;;;;5075419;28;20112;-69
2022/05/28 00:52:49;;;;;;;3.73;1.90;;;;;;;;;;5091398;28;20113;-69
2022/05/28 00:55:17;;;;;;;3.78;1.67;;;;;;;;;;5091590;28;20080;-69
2022/05/28 00:57:44;;;;;;;3.95;2.05;;;;;;;;;;5091639;28;20048;-69
2022/05/28 01:00:13;;;;;;;4.90;2.13;;;;;;;;;;5091495;28;20090;-69
2022/05/28 01:02:39;;;;;;;2.55;2.00;;;;;;;;;;5091213;28;20553;-70
2022/05/28 01:05:20;;;;;;;4.40;1.75;;;;;;;;;;5091626;28;20498;-69
2022/05/28 01:07:53;;;;;;;3.17;1.70;;;;;;;;;;5090377;28;20041;-69
2022/05/28 01:10:22;;;;;;;5.25;1.70;;;;;;;;;;5091113;28;20091;-69
2022/05/28 01:13:05;;;;;;;4.13;1.83;;;;;;;;;;5091384;28;20071;-70
2022/05/28 01:15:33;;;;;;;5.13;1.80;;;;;;;;;;5087029;28;20103;-69
2022/05/28 01:18:09;;;;;;;2.65;1.35;;;;;;;;;;5089207;28;20052;-70
2022/05/28 01:20:40;;;;;;;5.25;2.10;;;;;;;;;;5091295;28;20524;-69
2022/05/28 01:23:10;;;;;;;5.90;2.00;;;;;;;;;;5091544;28;20086;-69
2022/05/28 01:25:45;;;;;;;3.75;1.75;;;;;;;;;;5091305;28;20048;-69
2022/05/28 01:28:17;;;;;;;2.95;1.77;;;;;;;;;;5091310;28;20072;-69
2022/05/28 01:30:44;;;;;;;3.42;1.73;;;;;;;;;;5091431;28;20135;-70
2022/05/28 01:33:12;;;;;;;4.53;1.98;;;;;;;;;;5094290;28;20048;-69
2022/05/28 01:35:39;;;;;;;5.25;1.75;;;;;;;;;;5095008;28;20063;-69
2022/05/28 01:38:06;;;;;;;3.92;1.73;;;;;;;;;;5094881;28;20622;-70
2022/05/28 01:40:34;;;;;;;5.20;1.80;;;;;;;;;;5093230;28;20083;-70
2022/05/28 01:43:03;;;;;;;3.85;1.67;;;;;;;;;;5094823;28;20086;-70
2022/05/28 01:45:31;;;;;;;4.95;2.03;;;;;;;;;;5094506;28;20100;-69
2022/05/28 01:47:59;;;;;;;5.13;1.88;;;;;;;;;;5094478;28;20083;-70
2022/05/28 01:50:27;;;;;;;4.65;2.00;;;;;;;;;;5094479;28;20048;-70
2022/05/28 01:52:54;;;;;;;3.70;1.55;;;;;;;;;;5094636;28;20102;-69
2022/05/28 01:55:22;;;;;;;4.68;2.30;;;;;;;;;;5094215;28;20508;-69
2022/05/28 01:57:49;;;;;;;3.80;1.92;;;;;;;;;;5094489;28;20087;-69
2022/05/28 02:00:16;;;;;;;5.75;2.55;;;;;;;;;;5094014;28;20495;-69
2022/05/28 02:02:42;;;;;;;2.90;1.83;;;;;;;;;;5094090;28;20136;-68
2022/05/28 02:05:10;;;;;;;4.57;1.98;;;;;;;;;;5094004;28;20548;-69
2022/05/28 02:07:36;;;;;;;3.00;1.90;;;;;;;;;;5094367;28;20071;-69
2022/05/28 02:10:10;;;;;;;3.60;1.70;;;;;;;;;;5094279;28;20083;-69
2022/05/28 02:12:36;;;;;;;3.38;1.70;;;;;;;;;;5094131;28;20135;-69
2022/05/28 02:15:22;;;;;;;4.50;2.10;;;;;;;;;;5094471;28;20052;-69
2022/05/28 02:17:50;;;;;;;3.33;1.90;;;;;;;;;;5093804;28;20056;-69
2022/05/28 02:20:16;;;;;;;4.63;1.90;;;;;;;;;;5094004;28;20130;-69
2022/05/28 02:23:14;;;;;;;3.53;1.98;;;;;;;;;;5093624;28;20054;-69
2022/05/28 02:25:55;;;;;;;5.22;1.77;;;;;;;;;;5093833;28;20459;-69
2022/05/28 02:28:23;;;;;;;2.92;1.67;;;;;;;;;;5093717;28;20078;-69
2022/05/28 02:30:51;;;;;;;3.63;2.10;;;;;;;;;;5093843;28;20052;-69
2022/05/28 02:33:18;;;;;;;8.95;2.15;;;;;;;;;;5093655;28;20078;-69
2022/05/28 02:35:45;;;;;;;4.97;2.23;;;;;;;;;;5093780;28;20086;-69
2022/05/28 02:38:12;;;;;;;6.18;1.95;;;;;;;;;;5093380;28;20330;-69
2022/05/28 02:40:38;;;;;;;2.90;1.80;;;;;;;;;;5093392;28;20143;-69
2022/05/28 02:43:05;;;;;;;6.85;1.73;;;;;;;;;;5092688;28;20079;-69
2022/05/28 02:45:32;;;;;;;5.07;2.13;;;;;;;;;;5093404;28;20453;-69
2022/05/28 02:47:58;;;;;;;3.83;1.90;;;;;;;;;;5093171;28;20499;-69
2022/05/28 02:50:26;;;;;;;2.50;1.60;;;;;;;;;;5094401;28;20145;-69
2022/05/28 02:52:53;;;;;;;4.85;1.85;;;;;;;;;;5093071;28;20137;-69
2022/05/28 02:55:19;;;;;;;3.17;2.33;;;;;;;;;;5093662;28;20075;-69
2022/05/28 02:57:46;;;;;;;3.55;2.42;;;;;;;;;;5093067;28;20109;-69
2022/05/28 03:00:14;;;;;;;3.63;2.38;;;;;;;;;;5093115;28;20103;-69
2022/05/28 03:02:41;;;;;;;2.40;1.83;;;;;;;;;;5092851;28;20526;-69
2022/05/28 03:05:08;;;;;;;4.43;1.90;;;;;;;;;;5092833;28;20090;-69
2022/05/28 03:07:34;;;;;;;3.17;1.92;;;;;;;;;;5092892;28;20076;-69
2022/05/28 03:10:00;;;;;;;3.72;2.30;;;;;;;;;;5093056;28;20093;-69
2022/05/28 03:12:27;;;;;;;3.15;2.25;;;;;;;;;;5092726;28;20086;-69
2022/05/28 03:14:53;;;;;;;4.13;2.10;;;;;;;;;;5092659;28;20048;-69
2022/05/28 03:17:20;;;;;;;3.30;1.95;;;;;;;;;;5092660;28;20080;-69
2022/05/28 03:19:46;;;;;;;4.32;2.08;;;;;;;;;;5092833;28;20401;-69
2022/05/28 03:22:12;;;;;;;3.30;1.80;;;;;;;;;;5091473;28;20040;-69
2022/05/28 03:24:39;;;;;;;3.67;1.95;;;;;;;;;;5092467;28;20078;-69
2022/05/28 03:27:05;;;;;;;3.55;2.28;;;;;;;;;;5092778;28;20048;-69
2022/05/28 03:29:32;;;;;;;3.78;2.00;;;;;;;;;;5092673;28;20476;-69
2022/05/28 03:31:58;;;;;;;3.55;2.30;;;;;;;;;;5092634;28;20084;-69
2022/05/28 03:34:24;;;;;;;4.53;2.47;;;;;;;;;;5092541;28;20072;-69
2022/05/28 03:36:51;;;;;;;4.85;2.15;;;;;;;;;;5092609;28;20106;-69
2022/05/28 03:39:17;;;;;;;4.30;2.25;;;;;;;;;;5092141;28;20083;-69
2022/05/28 03:41:44;;;;;;;6.07;2.58;;;;;;;;;;5092101;28;20094;-69
2022/05/28 03:44:11;;;;;;;3.47;1.77;;;;;;;;;;5092512;28;20083;-69
2022/05/28 03:46:38;;;;;;;4.57;1.75;;;;;;;;;;5092078;28;20126;-69
2022/05/28 03:49:06;;;;;;;4.05;2.10;;;;;;;;;;5092157;28;20074;-69
2022/05/28 03:51:32;;;;;;;2.00;1.80;;;;;;;;;;5092349;28;20080;-69
2022/05/28 03:53:59;;;;;;;5.78;2.10;;;;;;;;;;5092315;28;20079;-69
2022/05/28 03:56:29;;;;;;;3.08;1.58;;;;;;;;;;5091815;28;20075;-69
2022/05/28 03:58:56;;;;;;;3.80;2.03;;;;;;;;;;5091911;28;20492;-69
2022/05/28 04:01:22;;;;;;;3.50;2.05;;;;;;;;;;5092085;28;20047;-69
2022/05/28 04:03:49;;;;;;;2.08;1.65;;;;;;;;;;5091925;28;20044;-69
2022/05/28 04:06:15;;;;;;;2.88;1.80;;;;;;;;;;5092250;28;20123;-69
2022/05/28 04:08:42;;;;;;;5.65;1.63;;;;;;;;;;5092047;28;20056;-69
2022/05/28 04:11:09;;;;;;;3.13;1.90;;;;;;;;;;5092126;28;20090;-69
2022/05/28 04:13:35;;;;;;;3.67;1.67;;;;;;;;;;5090456;28;20070;-69
2022/05/28 04:16:02;;;;;;;2.50;1.67;;;;;;;;;;5092136;28;20051;-69
2022/05/28 04:18:28;;;;;;;5.35;1.98;;;;;;;;;;5091878;28;20087;-69
2022/05/28 04:20:55;;;;;;;3.33;1.98;;;;;;;;;;5091918;28;20079;-69
2022/05/28 04:23:21;;;;;;;5.30;2.20;;;;;;;;;;5091771;28;20039;-69
2022/05/28 04:25:47;;;;;;;6.15;2.00;;;;;;;;;;5091596;28;20083;-69
2022/05/28 04:28:14;;;;;;;3.20;1.75;;;;;;;;;;5090593;28;20075;-70
2022/05/28 04:30:40;;;;;;;5.78;2.30;;;;;;;;;;5091851;28;20048;-69
2022/05/28 04:33:07;;;;;;;4.65;2.47;;;;;;;;;;5091950;28;20047;-69
2022/05/28 04:35:33;;;;;;;2.20;2.00;;;;;;;;;;5091557;28;20079;-69
2022/05/28 04:38:00;;;;;;;4.18;1.85;;;;;;;;;;5091547;28;20491;-69
2022/05/28 04:40:26;;;;;;;3.97;1.60;;;;;;;;;;5091407;28;20084;-70
2022/05/28 04:42:53;;;;;;;5.93;1.80;;;;;;;;;;5091397;28;20086;-69
2022/05/28 04:45:19;;;;;;;5.07;1.55;;;;;;;;;;5091686;28;20255;-69
2022/05/28 04:47:45;;;;;;;3.03;1.65;;;;;;;;;;5091693;28;20101;-69
2022/05/28 04:50:12;;;;;;;2.85;1.67;;;;;;;;;;5091437;28;20561;-69
2022/05/28 04:52:38;;;;;;;2.08;1.65;;;;;;;;;;5091444;28;20098;-69
2022/05/28 04:55:06;;;;;;;3.75;1.95;;;;;;;;;;5091237;28;20048;-69
2022/05/28 04:57:33;;;;;;;3.45;1.63;;;;;;;;;;5091735;28;20091;-69
2022/05/28 04:59:59;;;;;;;3.80;1.73;;;;;;;;;;5088309;28;20088;-69
2022/05/28 05:02:26;;;;;;;3.50;1.58;;;;;;;;;;5081042;28;20094;-69
2022/05/28 05:04:55;;;;;;;3.30;1.70;;;;;;;;;;5091244;28;20076;-69
2022/05/28 05:07:22;;;;;;;2.53;1.80;;;;;;;;;;5093420;28;20464;-69
2022/05/28 05:09:48;;;;;;;4.45;1.98;;;;;;;;;;5095064;28;20572;-69
2022/05/28 05:12:15;;;;;;;3.70;1.55;;;;;;;;;;5095121;28;20132;-69
2022/05/28 05:14:41;;;;;;;4.13;1.60;;;;;;;;;;5095469;28;20079;-70
2022/05/28 05:17:08;;;;;;;6.03;1.73;;;;;;;;;;5094978;28;20076;-69
2022/05/28 05:19:34;;;;;;;2.92;1.50;;;;;;;;;;5095338;28;20132;-69
2022/05/28 05:22:06;;;;;;;2.55;1.88;;;;;;;;;;5094923;28;20483;-69
2022/05/28 05:24:33;;;;;;;3.97;1.88;;;;;;;;;;5094839;28;20087;-69
2022/05/28 05:27:03;;;;;;;5.88;1.85;;;;;;;;;;5095101;28;20055;-69
2022/05/28 05:29:29;;;;;;;3.53;1.80;;;;;;;;;;5094750;28;20503;-69
2022/05/28 05:31:56;;;;;;;7.90;1.85;;;;;;;;;;5095356;28;20105;-69
2022/05/28 05:34:22;;;;;;;3.72;1.63;;;;;;;;;;5094793;28;20094;-69
2022/05/28 05:36:49;;;;;;;5.97;2.03;;;;;;;;;;5094871;28;20080;-69
2022/05/28 05:39:15;;;;;;;5.90;2.05;;;;;;;;;;5094865;28;20083;-69
2022/05/28 05:41:42;;;;;;;2.38;1.80;;;;;;;;;;5094310;28;20088;-70
2022/05/28 05:44:09;;;;;;;6.40;1.70;;;;;;;;;;5094665;28;20040;-69
2022/05/28 05:46:38;;;;;;;6.07;2.00;;;;;;;;;;5094727;28;20093;-69
2022/05/28 05:49:05;;;;;;;2.58;1.88;;;;;;;;;;5094485;28;20044;-69
2022/05/28 05:51:31;;;;;;;4.88;2.15;;;;;;;;;;5094306;28;20138;-69
2022/05/28 05:53:57;;;;;;;3.10;1.50;;;;;;;;;;5094591;28;20048;-70
2022/05/28 05:56:24;;;;;;;2.58;1.50;;;;;;;;;;5094462;28;20083;-69
2022/05/28 05:58:50;;;;;;;4.22;2.08;;;;;;;;;;5094223;28;20523;-69
2022/05/28 06:01:19;;;;;;;4.68;2.20;;;;;;;;;;5094175;28;20084;-70
2022/05/28 06:03:45;;;;;;;4.60;2.10;;;;;;;;;;5094139;28;20055;-70
2022/05/28 06:06:14;;;;;;;4.32;1.90;;;;;;;;;;5094352;28;20105;-69
2022/05/28 06:08:41;;;;;;;4.20;2.00;;;;;;;;;;5094168;28;20044;-70
2022/05/28 06:11:07;;;;;;;4.93;1.90;;;;;;;;;;5094048;28;20087;-70
2022/05/28 06:13:35;;;;;;;4.07;1.60;;;;;;;;;;5094021;28;20155;-70
2022/05/28 06:16:02;;;;;;;5.93;2.00;;;;;;;;;;5093697;28;20507;-69
2022/05/28 06:18:29;;;;;;;9.40;3.72;;;;;;;;;;5094037;28;20102;-70
2022/05/28 06:20:57;;;;;;;7.30;2.53;;;;;;;;;;5094055;28;20436;-70
2022/05/28 06:23:24;;;;;;;18.88;8.77;;;;;;;;;;5093494;28;20078;-70
2022/05/28 06:25:50;;;;;;;16.73;8.38;;;;;;;;;;5093502;28;20090;-70
2022/05/28 06:28:17;;;;;;;12.27;6.70;;;;;;;;;;5093942;28;20131;-70
2022/05/28 06:30:44;;;;;;;4.93;2.55;;;;;;;;;;5094063;28;20448;-70
2022/05/28 06:33:11;;;;;;;7.32;2.38;;;;;;;;;;5092312;28;20083;-70
2022/05/28 06:35:38;;;;;;;9.63;4.47;;;;;;;;;;5092623;28;20090;-70
2022/05/28 06:38:04;;;;;;;16.45;8.38;;;;;;;;;;5093364;28;20051;-70
2022/05/28 06:40:31;;;;;;;7.65;4.63;;;;;;;;;;5093000;28;20052;-70
2022/05/28 06:42:57;;;;;;;5.97;2.13;;;;;;;;;;5093036;28;20549;-70
2022/05/28 06:45:24;;;;;;;5.47;2.65;;;;;;;;;;5092946;28;20500;-70
2022/05/28 06:47:51;;;;;;;5.13;1.90;;;;;;;;;;5092998;28;20170;-70
2022/05/28 06:53:03;;;;;;;4.93;1.38;;;;;;;;;;5092813;28;20048;-70
2022/05/28 06:55:30;;;;;;;4.82;1.30;;;;;;;;;;5092984;28;20127;-70
2022/05/28 06:57:56;;;;;;;4.50;1.50;;;;;;;;;;5093095;28;20408;-70
2022/05/28 07:00:23;;;;;;;5.85;1.42;;;;;;;;;;5093175;28;20048;-70
2022/05/28 07:02:49;;;;;;;7.15;1.88;;;;;;;;;;5093187;28;20131;-69
2022/05/28 07:05:16;;;;;;;5.05;1.50;;;;;;;;;;5093082;28;20048;-70
2022/05/28 07:07:42;;;;;;;6.22;1.25;;;;;;;;;;5092813;28;20040;-71
2022/05/28 07:10:09;;;;;;;2.15;1.10;;;;;;;;;;5092864;28;20076;-71
2022/05/28 07:12:35;;;;;;;5.73;1.27;;;;;;;;;;5092326;28;20071;-71
2022/05/28 07:15:02;;;;;;;4.82;1.20;;;;;;;;;;5091629;28;20518;-70
2022/05/28 07:17:29;;;;;;;5.38;1.13;;;;;;;;;;5092386;28;20099;-70
2022/05/28 07:19:55;;;;;;;5.50;1.17;;;;;;;;;;5092275;28;20068;-71
2022/05/28 07:22:21;;;;;;;3.42;0.95;;;;;;;;;;5092215;28;20044;-71
2022/05/28 07:24:48;;;;;;;4.95;1.08;;;;;;;;;;5092314;28;20071;-72
2022/05/28 07:27:14;;;;;;;1.52;0.88;;;;;;;;;;5092245;28;20071;-71
2022/05/28 07:29:41;;;;;;;4.77;1.60;;;;;;;;;;5092191;28;20067;-70
2022/05/28 07:32:07;;;;;;;4.40;1.27;;;;;;;;;;5092396;28;20131;-69
2022/05/28 07:34:34;;;;;;;5.07;1.00;;;;;;;;;;5092406;28;20566;-70
2022/05/28 07:37:00;;;;;;;2.95;0.88;;;;;;;;;;5092394;28;20096;-70
2022/05/28 07:39:27;;;;;;;2.35;0.75;;;;;;;;;;5091552;28;20071;-70
2022/05/28 07:41:53;;;;;;;3.22;0.90;;;;;;;;;;5091622;28;20076;-70
2022/05/28 07:44:20;;;;;;;2.30;0.85;;;;;;;;;;5091785;28;20072;-68
2022/05/28 07:46:46;;;;;;;4.63;0.75;;;;;;;;;;5091833;28;20227;-70
2022/05/28 07:49:13;;;;;;;2.30;0.65;;;;;;;;;;5087259;28;20071;-70
2022/05/28 07:51:39;;;;;;;1.65;0.63;;;;;;;;;;5090096;28;20078;-71
2022/05/28 07:54:06;;;;;;;3.97;0.73;;;;;;;;;;5091931;28;20437;-70
2022/05/28 07:56:32;;;;;;;3.15;0.88;;;;;;;;;;5090439;28;20135;-70
2022/05/28 07:58:59;;;;;;;2.65;0.75;;;;;;;;;;5091498;28;20072;-70
2022/05/28 08:01:26;;;;;;;;;;;;;;;;;;5092656;28;20188;-70
2022/05/28 08:03:53;;;;;;;3.17;0.70;;;;;;;;;;5091963;28;19982;-70
2022/05/28 08:06:20;;;;;;;4.15;0.80;;;;;;;;;;5091798;28;20514;-70
2022/05/28 08:08:47;;;;;;;5.32;1.17;;;;;;;;;;5092207;28;20094;-70
2022/05/28 08:11:14;;;;;;;2.47;0.70;;;;;;;;;;5092154;28;20093;-70
2022/05/28 08:13:40;;;;;;;5.05;1.02;;;;;;;;;;5091132;28;20090;-69
2022/05/28 08:16:06;;;;;;;3.33;0.70;;;;;;;;;;5091998;28;20052;-70
2022/05/28 08:18:36;;;;;;;3.75;0.70;;;;;;;;;;5091106;28;20480;-70
2022/05/28 08:23:48;;;;;;;1.88;0.75;;;;;;;;;;5091589;28;20071;-70
2022/05/28 08:26:19;;;;;;;3.13;0.80;;;;;;;;;;5091551;28;20076;-70
2022/05/28 08:28:45;;;;;;;3.30;1.00;;;;;;;;;;5091699;28;20503;-73
2022/05/28 08:31:12;;;;;;;4.10;0.77;;;;;;;;;;5090610;28;20078;-69
2022/05/28 08:33:39;;;;;;;3.38;0.98;;;;;;;;;;5091186;28;20052;-71
2022/05/28 08:36:05;;;;;;;3.47;1.02;;;;;;;;;;5090796;28;20071;-71
2022/05/28 08:38:32;;;;;;;3.22;0.80;;;;;;;;;;5090603;28;20075;-74
2022/05/28 08:41:01;;;;;;;3.05;0.70;;;;;;;;;;5090526;28;20091;-69
2022/05/28 08:43:29;;;;;;;2.83;0.70;;;;;;;;;;5095688;28;20048;-70
2022/05/28 08:45:56;;;;;;;2.88;0.82;;;;;;;;;;5092524;28;20127;-70
2022/05/28 08:48:26;;;;;;;3.17;0.90;;;;;;;;;;5094313;28;20052;-70
2022/05/28 08:50:59;;;;;;;2.90;0.90;;;;;;;;;;5094813;28;20044;-70
2022/05/28 08:53:29;;;;;;;2.47;0.77;;;;;;;;;;5094475;28;20124;-71
2022/05/28 08:55:57;;;;;;;4.43;1.00;;;;;;;;;;5074668;28;20123;-76
2022/05/28 08:58:26;;;;;;;1.92;1.30;;;;;;;;;;5074915;28;20068;-75
2022/05/28 09:01:02;;;;;;;3.13;0.90;;;;;;;;;;5074478;28;20056;-75
2022/05/28 09:03:40;;;;;;;3.97;0.95;;;;;;;;;;5074788;28;20049;-74
2022/05/28 09:06:16;;;;;;;2.05;0.68;;;;;;;;;;5074529;28;20072;-63
2022/05/28 09:08:43;;;;;;;;;;;;;;;;;;5072667;28;20040;-64
2022/05/28 09:11:13;;;;;;;3.35;0.90;;;;;;;;;;5074674;28;19970;-63
2022/05/28 09:13:50;;;;;;;4.22;1.27;;;;;;;;;;5074556;28;20086;-63
2022/05/28 09:16:30;;;;;;;4.53;1.13;;;;;;;;;;5061889;28;20080;-64
2022/05/28 09:19:03;;;;;;;10.15;2.70;;;;;;;;;;5073567;28;20052;-64
2022/05/28 09:21:29;;;;;;;4.15;1.75;;;;;;;;;;5074353;28;20448;-63
2022/05/28 09:24:16;;;;;;;2.25;1.30;;;;;;;;;;5073696;28;20564;-64
2022/05/28 09:26:55;;;;;;;4.88;1.73;;;;;;;;;;5082000;28;20078;-63
2022/05/28 09:29:21;;;;;;;5.43;1.88;;;;;;;;;;5093849;28;20522;-64
2022/05/28 09:31:56;;;;;;;4.70;0.98;;;;;;;;;;5094198;28;20109;-63
2022/05/28 09:34:40;;;;;;;3.70;1.40;;;;;;;;;;5094432;28;20086;-64
2022/05/28 09:37:16;;;;;;;2.28;0.90;;;;;;;;;;5094481;28;20048;-63
2022/05/28 09:39:42;;;;;;;3.25;1.50;;;;;;;;;;5094628;28;20454;-63
2022/05/28 09:42:17;;;;;;;1.95;0.98;;;;;;;;;;5093266;28;20091;-63
2022/05/28 09:45:03;;;;;;;1.88;0.90;;;;;;;;;;5092722;28;20091;-64
2022/05/28 09:47:54;;;;;;;3.53;1.00;;;;;;;;;;5091671;28;20056;-63
2022/05/28 09:50:24;;;;;;;4.47;1.48;;;;;;;;;;5088055;28;20440;-63
2022/05/28 09:55:56;;;;;;;1.70;1.00;;;;;;;;;;5100679;28;20044;-63
2022/05/28 09:58:24;;;;;;;4.05;1.15;;;;;;;;;;5092638;28;20048;-63
2022/05/28 10:00:51;;;;;;;3.80;0.80;;;;;;;;;;5092561;28;20069;-63
2022/05/28 10:06:03;;;;;;;2.50;0.80;;;;;;;;;;5092605;28;19928;-63
2022/05/28 10:08:30;;;;;;;4.30;1.35;;;;;;;;;;5090548;28;20135;-62
2022/05/28 10:11:00;;;;;;;1.88;0.90;;;;;;;;;;5092337;28;20078;-62
2022/05/28 10:13:28;;;;;;;3.42;0.95;;;;;;;;;;5091910;28;20138;-62
2022/05/28 10:15:56;;;;;;;1.85;0.95;;;;;;;;;;5088401;28;20495;-62
2022/05/28 10:18:31;;;;;;;3.22;0.80;;;;;;;;;;5092552;28;20066;-62
2022/05/28 10:20:58;;;;;;;3.03;1.00;;;;;;;;;;5092562;28;20076;-63
2022/05/28 10:23:24;;;;;;;1.73;1.00;;;;;;;;;;5092011;28;20488;-62
2022/05/28 10:25:51;;;;;;;1.90;0.90;;;;;;;;;;5092265;28;20075;-63
2022/05/28 10:28:27;;;;;;;2.97;1.10;;;;;;;;;;5072686;28;20072;-63
2022/05/28 10:30:54;;;;;;;2.75;0.88;;;;;;;;;;5071468;28;20087;-63
2022/05/28 10:33:24;;;;;;;2.28;0.90;;;;;;;;;;5084231;28;20470;-62
2022/05/28 10:35:51;;;;;;;3.40;1.10;;;;;;;;;;5089234;28;20171;-63
2022/05/28 10:38:22;;;;;;;2.33;0.68;;;;;;;;;;5091567;28;20052;-63
2022/05/28 10:40:50;;;;;;;1.85;0.80;;;;;;;;;;5044699;28;1139438;-63
2022/05/28 10:43:27;;;;;;;2.95;1.17;;;;;;;;;;5079204;28;20129;-63
2022/05/28 10:46:03;;;;;;;2.53;0.85;;;;;;;;;;5093455;28;20075;-63
2022/05/28 10:48:34;;;;;;;2.22;0.50;;;;;;;;;;5093643;28;20044;-63
2022/05/28 10:51:00;;;;;;;1.40;0.60;;;;;;;;;;5092129;28;20494;-72
2022/05/28 10:53:28;;;;;;;4.07;0.82;;;;;;;;;;5093254;28;20055;-72
2022/05/28 10:56:07;;;;;;;2.75;0.70;;;;;;;;;;5092114;28;20075;-72
2022/05/28 10:58:58;;;;;;;2.65;0.60;;;;;;;;;;5093131;28;20074;-72
2022/05/28 11:01:30;;;;;;;2.20;0.50;;;;;;;;;;5092831;28;20452;-72
2022/05/28 11:04:07;;;;;;;2.28;0.80;;;;;;;;;;5092659;28;20044;-72
2022/05/28 11:06:54;;;;;;;2.20;0.82;;;;;;;;;;5093186;28;20052;-72
2022/05/28 11:09:29;;;;;;;1.50;0.50;;;;;;;;;;5092978;28;20127;-72
2022/05/28 11:12:18;;;;;;;1.98;0.60;;;;;;;;;;5093068;28;20079;-73
2022/05/28 11:14:45;;;;;;;2.20;0.50;;;;;;;;;;5092226;28;20083;-73
2022/05/28 11:17:20;;;;;;;1.35;0.55;;;;;;;;;;5092713;28;20056;-72
2022/05/28 11:20:10;;;;;;;2.88;0.68;;;;;;;;;;5091046;28;20487;-73
2022/05/28 11:22:58;;;;;;;1.13;0.50;;;;;;;;;;5076487;28;20523;-71
2022/05/28 11:25:34;;;;;;;2.38;0.52;;;;;;;;;;5087609;28;20457;-71
2022/05/28 11:28:07;;;;;;;1.83;0.43;;;;;;;;;;5064958;28;20079;-71
2022/05/28 11:30:44;;;;;;;1.67;0.47;;;;;;;;;;5082274;28;20305;-72
2022/05/28 11:33:26;;;;;;;2.17;0.80;;;;;;;;;;5066099;28;20044;-71
2022/05/28 11:35:56;;;;;;;2.50;0.68;;;;;;;;;;5092663;28;20056;-71
2022/05/28 11:38:31;;;;;;;2.45;0.80;;;;;;;;;;5087863;28;20134;-71
2022/05/28 11:41:19;;;;;;;1.65;0.80;;;;;;;;;;5087305;28;20052;-71
2022/05/28 11:43:52;;;;;;;1.48;1.00;;;;;;;;;;5092153;28;20534;-73
2022/05/28 11:46:35;;;;;;;1.10;0.60;;;;;;;;;;5091137;28;20101;-74
2022/05/28 11:51:55;;;;;;;3.10;1.02;;;;;;;;;;5091457;28;20786;-72
2022/05/28 11:54:25;;;;;;;3.67;0.80;;;;;;;;;;5092370;28;20068;-72
2022/05/28 11:56:52;;;;;;;2.03;0.95;;;;;;;;;;5086784;28;20108;-72
2022/05/28 11:59:24;;;;;;;1.88;0.77;;;;;;;;;;5092438;28;20151;-71
2022/05/28 12:01:52;;;;;;;1.48;0.70;;;;;;;;;;5092133;28;20077;-71
2022/05/28 12:04:19;;;;;;;1.73;0.73;;;;;;;;;;5092139;28;20127;-72
2022/05/28 12:07:03;;;;;;;1.42;1.02;;;;;;;;;;5092176;28;20047;-72
2022/05/28 12:09:34;;;;;;;3.25;1.00;;;;;;;;;;5092003;28;20094;-71
2022/05/28 12:12:18;;;;;;;2.83;1.10;;;;;;;;;;5092242;28;20438;-72
2022/05/28 12:14:47;;;;;;;1.20;0.70;;;;;;;;;;5091987;28;20079;-71
2022/05/28 12:17:17;;;;;;;1.27;0.77;;;;;;;;;;5092027;28;20135;-71
2022/05/28 12:19:47;;;;;;;1.33;0.88;;;;;;;;;;5091807;28;20831;-71
2022/05/28 12:22:26;;;;;;;2.80;0.85;;;;;;;;;;5091956;28;20079;-70
2022/05/28 12:25:03;;;;;;;1.98;0.68;;;;;;;;;;5081904;28;20091;-71
2022/05/28 12:27:38;;;;;;;3.42;0.90;;;;;;;;;;5089759;28;20473;-71
2022/05/28 12:30:08;;;;;;;1.08;0.68;;;;;;;;;;5091396;28;20534;-71
2022/05/28 12:32:43;;;;;;;2.63;0.70;;;;;;;;;;5091257;28;20134;-71
2022/05/28 12:35:15;;;;;;;0.90;0.63;;;;;;;;;;5091826;28;20071;-69
2022/05/28 12:37:48;;;;;;;2.58;0.65;;;;;;;;;;5090985;28;20044;-71
2022/05/28 12:40:29;;;;;;;1.27;0.57;;;;;;;;;;5090130;28;20059;-71
2022/05/28 12:43:19;;;;;;;2.58;0.70;;;;;;;;;;5075272;28;20110;-71
2022/05/28 12:45:47;;;;;;;5.20;0.95;;;;;;;;;;5090758;28;20097;-71
2022/05/28 12:48:30;;;;;;;2.03;0.90;;;;;;;;;;5091694;28;20139;-71
2022/05/28 12:50:59;;;;;;;;;;;;;;;;;;5092420;28;20056;-71
2022/05/28 12:53:26;;;;;;;;;;;;;;;;;;5091047;28;19967;-71
2022/05/28 12:56:18;;;;;;;2.63;1.30;;;;;;;;;;5090349;28;20243;-76
2022/05/28 12:58:45;;;;;;;1.83;0.95;;;;;;;;;;5077208;28;20135;-77
2022/05/28 13:01:24;;;;;;;1.13;1.00;;;;;;;;;;5089632;28;20543;-76
2022/05/28 13:03:51;;;;;;;3.53;1.35;;;;;;;;;;5090902;28;20044;-76
2022/05/28 13:06:53;;;;;;;1.77;0.75;;;;;;;;;;5091634;28;20072;-77
2022/05/28 13:09:22;;;;;;;1.90;0.93;;;;;;;;;;5088683;28;20374;-76
2022/05/28 13:12:18;;;;;;;1.92;0.85;;;;;;;;;;5090515;28;20127;-76
2022/05/28 13:14:50;;;;;;;1.45;0.90;;;;;;;;;;5090767;28;20083;-77
2022/05/28 13:17:25;;;;;;;3.17;1.35;;;;;;;;;;5090979;28;20048;-76
2022/05/28 13:20:18;;;;;;;1.25;0.80;;;;;;;;;;5091029;28;20083;-76
2022/05/28 13:22:44;;;;;;;3.90;1.33;;;;;;;;;;5090907;28;20048;-76
2022/05/28 13:25:29;;;;;;;1.08;0.60;;;;;;;;;;5090998;28;20076;-77
2022/05/28 13:28:05;;;;;;;0.88;0.60;;;;;;;;;;5092211;28;20448;-77
2022/05/28 13:30:33;;;;;;;3.07;0.67;;;;;;;;;;5094848;28;20066;-76
2022/05/28 13:33:09;;;;;;;1.73;0.70;;;;;;;;;;5094891;28;20075;-76
2022/05/28 13:35:47;;;;;;;3.03;0.70;;;;;;;;;;5093528;28;20495;-76
2022/05/28 13:38:19;;;;;;;1.60;0.60;;;;;;;;;;5093692;28;20078;-76
2022/05/28 13:40:46;;;;;;;1.73;0.93;;;;;;;;;;5094112;28;20079;-75
2022/05/28 13:43:14;;;;;;;2.33;0.57;;;;;;;;;;5093562;28;20068;-76
2022/05/28 13:45:42;;;;;;;1.50;0.63;;;;;;;;;;5093292;28;20052;-76
2022/05/28 13:48:11;;;;;;;1.35;0.60;;;;;;;;;;5093901;28;20051;-77
2022/05/28 13:50:43;;;;;;;3.03;0.60;;;;;;;;;;5093317;28;20044;-75
2022/05/28 13:53:10;;;;;;;1.73;0.63;;;;;;;;;;5093909;28;20553;-76
2022/05/28 13:55:42;;;;;;;2.75;0.65;;;;;;;;;;5093759;28;20086;-76
2022/05/28 13:58:21;;;;;;;2.40;0.80;;;;;;;;;;5094277;28;20105;-76
2022/05/28 14:01:08;;;;;;;2.17;0.90;;;;;;;;;;5094324;28;20039;-75
2022/05/28 14:03:39;;;;;;;1.90;0.73;;;;;;;;;;5093825;28;20087;-73
2022/05/28 14:06:16;;;;;;;2.92;0.68;;;;;;;;;;5093513;28;20079;-71
2022/05/28 14:08:44;;;;;;;1.02;0.73;;;;;;;;;;5094370;28;20130;-71
2022/05/28 14:11:18;;;;;;;2.45;0.80;;;;;;;;;;5092658;28;20521;-73
2022/05/28 14:13:48;;;;;;;1.60;0.60;;;;;;;;;;5089821;28;20080;-73
2022/05/28 14:16:29;;;;;;;1.33;0.68;;;;;;;;;;5093678;28;20465;-74
2022/05/28 14:19:00;;;;;;;5.30;1.13;;;;;;;;;;5093322;28;20135;-75
2022/05/28 14:21:30;;;;;;;0.77;0.52;;;;;;;;;;5093283;28;20080;-75
2022/05/28 14:23:59;;;;;;;1.33;0.70;;;;;;;;;;5083385;28;20135;-74
2022/05/28 14:26:26;;;;;;;2.10;0.60;;;;;;;;;;5088482;28;20448;-74
2022/05/28 14:28:58;;;;;;;1.60;0.50;;;;;;;;;;5093338;28;20048;-74
2022/05/28 14:31:25;;;;;;;3.63;0.63;;;;;;;;;;5093096;28;20075;-69
2022/05/28 14:33:51;;;;;;;;;;;;;;;;;;5094246;28;20052;-72
2022/05/28 14:36:29;;;;;;;1.20;0.50;;;;;;;;;;5093601;28;19945;-71
2022/05/28 14:39:06;;;;;;;1.55;0.70;;;;;;;;;;5092040;28;20079;-71
2022/05/28 14:41:32;;;;;;;;;;;;;;;;;;5086864;28;20086;-75
2022/05/28 14:43:58;;;;;;;;;;;;;;;;;;5093882;28;19965;-70
2022/05/28 14:46:27;;;;;;;2.72;0.60;;;;;;;;;;5092870;28;19924;-72
2022/05/28 14:49:17;;;;;;;0.70;0.50;;;;;;;;;;5092359;28;20105;-72
2022/05/28 14:51:43;;;;;;;1.85;0.63;;;;;;;;;;5091208;28;20085;-72
2022/05/28 14:54:20;;;;;;;0.93;0.40;;;;;;;;;;5093079;28;20557;-69
2022/05/28 14:56:47;;;;;;;1.20;0.40;;;;;;;;;;5093151;28;20067;-69
2022/05/28 14:59:13;;;;;;;;;;;;;;;;;;5094125;28;20154;-69
2022/05/28 15:01:40;;;;;;;1.75;0.65;;;;;;;;;;5093028;28;19966;-68
2022/05/28 15:04:08;;;;;;;1.23;0.65;;;;;;;;;;5093271;28;20051;-69
2022/05/28 15:06:35;;;;;;;1.75;0.70;;;;;;;;;;5093043;28;20401;-70
2022/05/28 15:09:01;;;;;;;1.08;0.40;;;;;;;;;;5091253;28;20072;-70
2022/05/28 15:11:32;;;;;;;1.00;0.35;;;;;;;;;;5090544;28;20460;-70
2022/05/28 15:14:12;;;;;;;3.30;0.90;;;;;;;;;;5092709;28;20077;-70
2022/05/28 15:16:40;;;;;;;1.92;0.73;;;;;;;;;;5091636;28;20093;-70